VGEG/CGP METAR and TAF weather

Enter ICAO airport designator
Station Type Date Time Source
VGEG METAR 2020/01/17 14:00 UTC NOAA

VGEG 171400Z 00000KT 4000 HZ NSC 22/16 Q1015 NOSIG


Station Type Date Time Source
VGEG Decoded METAR 2020/01/17 14:00 UTC NOAA

Chittagong Patenga , Bangladesh (VGEG) 22-16N 091-49E 6M
Jan 17, 2020 - 09:00 AM EST / 2020.01.17 1400 UTC
Wind: Calm:0
Visibility: 2 mile(s):0
Weather: haze
Temperature: 71 F (22 C)
Dew Point: 60 F (16 C)
Relative Humidity: 68%
Pressure (altimeter): 29.97 in. Hg (1015 hPa)
ob: VGEG 171400Z 00000KT 4000 HZ NSC 22/16 Q1015 NOSIG
cycle: 14

Station Type Date Time Source
VGEG TAF 2020/01/17 12:33 UTC NOAA

TAF TAF VGEG 171100Z 1712/1818 35006KT 4000 HZ NSC
BECMG 1719/1721 00000KT 3200 HZ NSC
BECMG 1800/1802 00000KT 2000 BR SCT012
BECMG 1802/1804 02005KT 3200 HZ NSC
BECMG 1807/1809 34010KT 5000 HZ NSC

Example: see airport list